Time;durP1;ratioP1;P1;durP2;ratioP2;P2;SDS_P1;SDS_P2;PMS_P1;PMS_P2;Temp;Humidity;BMP_temperature;BMP_pressure;BME280_temperature;BME280_humidity;BME280_pressure;Samples;Min_cycle;Max_cycle;Signal;HPM_P1;HPM_P2
2023/08/30 00:01:18;;;;;;;21.00;16.50;;;;;;;25.13;60.73;98740.14;107152;1256;60100;-38
2023/08/30 00:03:46;;;;;;;18.70;16.70;;;;;;;25.13;60.69;98737.47;107125;1258;73870;-38
2023/08/30 00:06:13;;;;;;;18.50;16.50;;;;;;;25.13;60.68;98736.02;107164;1262;67925;-38
2023/08/30 00:08:41;;;;;;;18.40;16.30;;;;;;;25.14;60.64;98743.69;107205;1256;72642;-38
2023/08/30 00:11:08;;;;;;;19.90;16.30;;;;;;;25.14;60.64;98742.17;107170;1256;60375;-38
2023/08/30 00:13:36;;;;;;;18.90;16.90;;;;;;;25.13;60.65;98737.73;107168;1256;60352;-38
2023/08/30 00:16:04;;;;;;;18.50;16.60;;;;;;;25.10;60.75;98743.48;107193;1257;72094;-38
2023/08/30 00:18:31;;;;;;;21.70;18.10;;;;;;;25.09;60.81;98746.92;107170;1256;66421;-38
2023/08/30 00:20:59;;;;;;;18.60;16.70;;;;;;;25.06;60.83;98745.27;107165;1262;72657;-38
2023/08/30 00:23:26;;;;;;;20.20;17.20;;;;;;;25.04;60.85;98748.63;107149;1257;60358;-38
2023/08/30 00:25:54;;;;;;;20.70;16.30;;;;;;;25.01;60.97;98749.02;107145;1256;60296;-38
2023/08/30 00:28:21;;;;;;;18.20;15.70;;;;;;;25.02;60.97;98752.73;107218;1256;73812;-38
2023/08/30 00:30:55;;;;;;;20.40;16.70;;;;;;;25.05;61.05;98758.85;107158;1256;67563;-38
2023/08/30 00:33:23;;;;;;;20.80;16.60;;;;;;;25.05;60.96;98758.70;107195;1256;72705;-38
2023/08/30 00:36:00;;;;;;;17.90;16.00;;;;;;;25.05;60.81;98758.73;107082;1259;60598;-38
2023/08/30 00:38:28;;;;;;;21.60;17.60;;;;;;;25.04;60.98;98765.23;107190;1256;60461;-38
2023/08/30 00:40:56;;;;;;;19.30;17.30;;;;;;;25.03;60.93;98768.27;107158;1256;72652;-38
2023/08/30 00:43:24;;;;;;;23.70;17.80;;;;;;;25.03;60.82;98765.86;107248;1256;67599;-38
2023/08/30 00:45:52;;;;;;;19.00;16.90;;;;;;;25.01;60.84;98769.35;107291;1256;72656;-38
2023/08/30 00:48:20;;;;;;;21.10;17.20;;;;;;;24.99;60.75;98769.77;107224;1256;60571;-38
2023/08/30 00:50:47;;;;;;;21.00;17.90;;;;;;;24.98;60.71;98768.08;107266;1256;60299;-38
2023/08/30 00:53:15;;;;;;;19.90;17.80;;;;;;;24.95;60.88;98766.34;107202;1256;72648;-38
2023/08/30 00:55:43;;;;;;;20.00;17.30;;;;;;;24.91;61.08;98766.95;107081;1256;67575;-38
2023/08/30 00:58:11;;;;;;;20.10;17.30;;;;;;;24.86;61.18;98761.03;107276;1256;71476;-38
2023/08/30 01:00:39;;;;;;;18.20;16.30;;;;;;;24.87;61.21;98760.09;107190;1257;60629;-38
2023/08/30 01:03:10;;;;;;;22.70;16.60;;;;;;;24.87;61.18;98759.43;107143;1256;60351;-38
2023/08/30 01:05:37;;;;;;;19.70;17.40;;;;;;;24.86;61.17;98760.61;107209;1257;72540;-39
2023/08/30 01:08:05;;;;;;;21.50;17.00;;;;;;;24.84;61.13;98765.04;107217;1257;66325;-37
2023/08/30 01:10:52;;;;;;;19.70;16.90;;;;;;;24.83;61.05;98762.72;107277;1257;72683;-37
2023/08/30 01:13:20;;;;;;;21.20;18.00;;;;;;;24.82;61.19;98761.98;107240;1257;60351;-38
2023/08/30 01:15:48;;;;;;;19.20;17.30;;;;;;;24.80;61.17;98763.30;107252;1257;61045;-38
2023/08/30 01:18:17;;;;;;;20.90;18.00;;;;;;;24.78;61.04;98763.51;107274;1256;73860;-38
2023/08/30 01:20:46;;;;;;;19.80;17.80;;;;;;;24.76;61.02;98760.34;107262;1256;66291;-38
2023/08/30 01:23:16;;;;;;;20.30;17.80;;;;;;;24.73;61.12;98764.52;107295;1257;72659;-38
2023/08/30 01:26:10;;;;;;;20.10;18.00;;;;;;;24.70;61.15;98762.13;107245;1256;60201;-38
2023/08/30 01:28:39;;;;;;;20.10;17.20;;;;;;;24.67;61.27;98763.07;107195;1256;60427;-38
2023/08/30 01:31:08;;;;;;;21.30;16.50;;;;;;;24.68;61.26;98762.48;107139;1257;73848;-38
2023/08/30 01:33:36;;;;;;;19.30;16.70;;;;;;;24.70;61.28;98763.88;107225;1257;67631;-38
2023/08/30 01:36:04;;;;;;;22.20;16.10;;;;;;;24.69;61.25;98761.45;107106;1256;72514;-38
2023/08/30 01:38:33;;;;;;;20.70;16.90;;;;;;;24.69;61.17;98765.67;107327;1257;60399;-38
2023/08/30 01:41:01;;;;;;;20.20;17.40;;;;;;;24.68;61.19;98765.31;107272;1262;59744;-38
2023/08/30 01:43:29;;;;;;;19.80;17.70;;;;;;;24.67;61.25;98760.82;107239;1256;73891;-38
2023/08/30 01:45:57;;;;;;;20.80;18.00;;;;;;;24.66;61.15;98760.02;107262;1256;67872;-38
2023/08/30 01:48:25;;;;;;;21.90;17.70;;;;;;;24.63;61.32;98761.27;107152;1257;71513;-38
2023/08/30 01:50:54;;;;;;;22.00;17.80;;;;;;;24.61;61.28;98760.74;107214;1257;60106;-38
2023/08/30 01:53:22;;;;;;;20.50;18.30;;;;;;;24.57;61.54;98761.82;107235;1257;60444;-38
2023/08/30 01:55:49;;;;;;;21.10;18.50;;;;;;;24.53;61.41;98761.73;107249;1257;73830;-38
2023/08/30 01:58:18;;;;;;;20.30;18.30;;;;;;;24.50;61.44;98759.13;107343;1257;66368;-38
2023/08/30 02:00:46;;;;;;;20.00;17.80;;;;;;;24.47;61.64;98757.52;107155;1256;72666;-38
2023/08/30 02:03:14;;;;;;;19.40;16.50;;;;;;;24.48;61.76;98755.67;107216;1257;61660;-38
2023/08/30 02:06:01;;;;;;;21.90;16.90;;;;;;;24.50;61.72;98758.48;107292;1257;60527;-38
2023/08/30 02:08:41;;;;;;;20.90;16.50;;;;;;;24.50;61.77;98760.23;107296;1256;73793;-38
2023/08/30 02:11:13;;;;;;;20.30;17.50;;;;;;;24.48;61.74;98762.33;107279;1257;67697;-38
2023/08/30 02:13:43;;;;;;;19.20;17.20;;;;;;;24.47;61.84;98758.66;107273;1257;72699;-38
2023/08/30 02:16:11;;;;;;;19.60;17.20;;;;;;;24.47;61.81;98763.14;107146;1257;60389;-38
2023/08/30 02:18:41;;;;;;;19.50;17.30;;;;;;;24.46;61.80;98760.80;107232;1257;60393;-38
2023/08/30 02:21:09;;;;;;;20.60;18.00;;;;;;;24.44;61.80;98760.75;107216;1257;73829;-38
2023/08/30 02:23:36;;;;;;;20.20;18.00;;;;;;;24.42;61.66;98763.62;107120;1257;67605;-38
2023/08/30 02:26:04;;;;;;;21.30;18.60;;;;;;;24.40;61.75;98759.45;107240;1257;71373;-38
2023/08/30 02:28:31;;;;;;;19.00;17.00;;;;;;;24.36;61.91;98761.91;107260;1257;61687;-47
2023/08/30 02:30:59;;;;;;;20.20;16.40;;;;;;;24.38;62.07;98762.16;107265;1257;60387;-38
2023/08/30 02:33:27;;;;;;;19.50;16.40;;;;;;;24.42;61.94;98759.44;107278;1257;73884;-38
2023/08/30 02:35:54;;;;;;;22.80;17.90;;;;;;;24.42;61.82;98764.95;107237;1256;67562;-38
2023/08/30 02:38:24;;;;;;;19.00;16.60;;;;;;;24.43;61.93;98764.61;107258;1257;71439;-38
2023/08/30 02:40:51;;;;;;;21.00;18.50;;;;;;;24.42;61.99;98762.92;107233;1256;60214;-38
2023/08/30 02:43:19;;;;;;;22.20;18.20;;;;;;;24.41;62.06;98762.48;107285;1256;60444;-38
2023/08/30 02:45:46;;;;;;;19.90;17.50;;;;;;;24.39;61.97;98758.56;107281;1256;73843;-38
2023/08/30 02:48:14;;;;;;;21.00;18.20;;;;;;;24.35;61.88;98759.98;107274;1256;67888;-38
2023/08/30 02:50:42;;;;;;;21.20;18.80;;;;;;;24.32;62.12;98762.83;107276;1257;72632;-38
2023/08/30 02:53:10;;;;;;;23.50;19.20;;;;;;;24.27;62.20;98763.52;107147;1256;59236;-38
2023/08/30 02:55:37;;;;;;;22.50;17.50;;;;;;;24.24;62.40;98758.45;107217;1257;60200;-38
2023/08/30 02:58:05;;;;;;;19.90;16.90;;;;;;;24.26;62.33;98758.91;107253;1257;73855;-38
2023/08/30 03:00:34;;;;;;;19.10;17.00;;;;;;;24.29;62.28;98756.50;107285;1257;67620;-38
2023/08/30 03:03:02;;;;;;;19.50;17.30;;;;;;;24.28;62.41;98758.10;107231;1256;72279;-38
2023/08/30 03:05:30;;;;;;;20.40;18.20;;;;;;;24.26;62.31;98761.42;107300;1257;60450;-38
2023/08/30 03:07:57;;;;;;;22.40;18.10;;;;;;;24.25;62.38;98763.07;107250;1257;60335;-38
2023/08/30 03:10:25;;;;;;;21.20;18.70;;;;;;;24.23;62.49;98761.80;107269;1260;72558;-38
2023/08/30 03:12:53;;;;;;;20.90;18.80;;;;;;;24.21;62.66;98762.15;107357;1256;67188;-38
2023/08/30 03:15:20;;;;;;;23.20;19.30;;;;;;;24.18;62.62;98761.73;107242;1257;72674;-38
2023/08/30 03:17:48;;;;;;;23.10;19.20;;;;;;;24.16;62.85;98762.61;107245;1257;60645;-38
2023/08/30 03:20:16;;;;;;;23.10;19.50;;;;;;;24.13;62.92;98763.50;107152;1257;60502;-38
2023/08/30 03:22:43;;;;;;;22.80;17.50;;;;;;;24.16;63.01;98767.98;107156;1257;73091;-38
2023/08/30 03:25:11;;;;;;;20.80;18.60;;;;;;;24.19;62.91;98768.73;107159;1256;68525;-38
2023/08/30 03:27:39;;;;;;;24.80;19.40;;;;;;;24.20;62.86;98769.30;107341;1257;71918;-38
2023/08/30 03:30:08;;;;;;;21.50;19.20;;;;;;;24.21;62.90;98771.66;107395;1257;60456;-38
2023/08/30 03:32:36;;;;;;;22.20;19.80;;;;;;;24.16;62.85;98764.90;107246;1257;61041;-38
2023/08/30 03:35:05;;;;;;;23.50;19.60;;;;;;;24.22;62.95;98772.39;107268;1257;72598;-38
2023/08/30 03:37:32;;;;;;;21.40;19.20;;;;;;;24.22;63.00;98771.35;107242;1259;67923;-38
2023/08/30 03:40:01;;;;;;;24.20;19.60;;;;;;;24.21;63.01;98771.66;107239;1256;71233;-38
2023/08/30 03:42:29;;;;;;;24.80;19.20;;;;;;;24.18;63.10;98777.05;107257;1257;60454;-38
2023/08/30 03:44:57;;;;;;;21.30;19.10;;;;;;;24.21;63.22;98775.91;107252;1256;60865;-38
2023/08/30 03:47:24;;;;;;;22.60;19.70;;;;;;;24.26;62.98;98775.06;107246;1256;73814;-38
2023/08/30 03:49:52;;;;;;;23.20;20.70;;;;;;;24.27;63.28;98776.66;107283;1257;66412;-38
2023/08/30 03:52:20;;;;;;;23.00;20.50;;;;;;;24.28;63.24;98774.41;107251;1256;72650;-38
2023/08/30 03:54:47;;;;;;;24.40;20.60;;;;;;;24.30;63.32;98780.45;107149;1259;60112;-38
2023/08/30 03:57:15;;;;;;;26.20;20.30;;;;;;;24.30;63.32;98779.21;107108;1257;60512;-38
2023/08/30 03:59:42;;;;;;;25.40;21.10;;;;;;;24.31;63.32;98780.59;107107;1258;72702;-38
2023/08/30 04:02:10;;;;;;;24.10;20.50;;;;;;;24.32;63.44;98781.02;107076;1258;67888;-38
2023/08/30 04:04:38;;;;;;;24.20;19.80;;;;;;;24.27;63.55;98776.41;107016;1257;72747;-38
2023/08/30 04:07:06;;;;;;;24.50;19.20;;;;;;;24.37;63.35;98783.00;107087;1259;61750;-39
2023/08/30 04:09:33;;;;;;;21.10;18.80;;;;;;;24.43;63.22;98784.00;107115;1257;60563;-38
2023/08/30 04:12:01;;;;;;;23.80;19.20;;;;;;;24.46;63.31;98784.17;107079;1257;73903;-39
2023/08/30 04:14:28;;;;;;;21.90;19.60;;;;;;;24.48;63.23;98781.77;107120;1259;67900;-37
2023/08/30 04:16:57;;;;;;;22.70;20.30;;;;;;;24.52;63.27;98776.95;107120;1257;71443;-37
2023/08/30 04:19:25;;;;;;;22.70;20.20;;;;;;;24.54;63.28;98777.53;107112;1261;60563;-36
2023/08/30 04:21:52;;;;;;;23.10;20.70;;;;;;;24.57;63.13;98781.74;107044;1259;60493;-37
2023/08/30 04:24:20;;;;;;;23.10;20.60;;;;;;;24.59;63.14;98778.34;107148;1261;73905;-37
2023/08/30 04:26:51;;;;;;;23.10;20.00;;;;;;;24.60;63.06;98778.42;107018;1257;66347;-37
2023/08/30 04:29:19;;;;;;;22.30;18.70;;;;;;;24.60;63.15;98780.39;107079;1260;72667;-38
2023/08/30 04:31:46;;;;;;;21.50;18.90;;;;;;;24.65;63.02;98776.79;107343;1253;60436;-38
2023/08/30 04:34:16;;;;;;;22.50;19.80;;;;;;;24.71;63.02;98779.73;107408;1253;60118;-38
2023/08/30 04:36:44;;;;;;;23.20;19.70;;;;;;;24.75;63.17;98781.16;107294;1253;72953;-38
2023/08/30 04:39:13;;;;;;;23.70;21.10;;;;;;;24.77;63.16;98790.61;107448;1253;66776;-38
2023/08/30 04:41:41;;;;;;;24.60;20.40;;;;;;;24.81;63.12;98789.24;107359;1253;72716;-38
2023/08/30 04:44:09;;;;;;;23.70;20.20;;;;;;;24.85;62.94;98787.86;107347;1255;60560;-38
2023/08/30 04:46:37;;;;;;;23.50;21.10;;;;;;;24.82;62.79;98783.27;107414;1253;60884;-38
2023/08/30 04:49:04;;;;;;;24.80;20.00;;;;;;;24.87;62.70;98793.59;107381;1253;72628;-38
2023/08/30 04:51:32;;;;;;;22.60;20.30;;;;;;;24.88;62.92;98788.17;107364;1253;67546;-38
2023/08/30 04:54:00;;;;;;;22.30;20.00;;;;;;;24.92;62.91;98789.31;107356;1253;71480;-38
2023/08/30 04:56:28;;;;;;;24.40;18.40;;;;;;;24.98;62.89;98788.61;107467;1253;60388;-38
2023/08/30 04:58:57;;;;;;;20.70;18.50;;;;;;;25.07;62.89;98789.29;107574;1253;60302;-38
2023/08/30 05:01:25;;;;;;;24.40;19.90;;;;;;;25.13;62.82;98790.42;107578;1253;72565;-38
2023/08/30 05:03:55;;;;;;;22.20;19.20;;;;;;;25.16;62.84;98788.89;107571;1253;66643;-38
2023/08/30 05:06:23;;;;;;;24.00;19.40;;;;;;;25.21;62.69;98793.64;107580;1253;71749;-38
2023/08/30 05:08:51;;;;;;;21.20;19.00;;;;;;;25.26;62.65;98795.09;107422;1254;179671;-38
2023/08/30 05:13:41;;;;;;;22.10;19.30;;;;;;;25.31;62.46;98795.95;104210;1292;601040;-38
2023/08/30 05:16:08;;;;;;;21.30;18.90;;;;;;;25.30;62.59;98795.55;106616;1265;61693;-37
2023/08/30 05:18:36;;;;;;;21.00;18.30;;;;;;;25.35;62.27;98796.51;106545;1266;60082;-38
2023/08/30 05:21:04;;;;;;;21.00;18.70;;;;;;;25.41;62.06;98791.69;106632;1266;72305;-38
2023/08/30 05:23:32;;;;;;;22.20;18.50;;;;;;;25.43;62.04;98791.02;106624;1265;66636;-38
2023/08/30 05:26:00;;;;;;;24.20;19.80;;;;;;;25.44;62.28;98788.61;106514;1267;72697;-38
2023/08/30 05:28:27;;;;;;;21.20;19.10;;;;;;;25.46;62.23;98793.50;106608;1264;159771;-38
2023/08/30 05:30:56;;;;;;;23.80;19.50;;;;;;;25.47;62.39;98791.70;106791;1265;59915;-38
2023/08/30 05:33:30;;;;;;;26.30;20.90;;;;;;;25.48;62.30;98789.51;106745;1263;70961;-38
2023/08/30 05:36:08;;;;;;;22.70;20.10;;;;;;;25.50;62.22;98789.10;106782;1263;66317;-38
2023/08/30 05:38:51;;;;;;;25.10;20.00;;;;;;;25.52;62.26;98785.74;106758;1263;71099;-37
2023/08/30 05:41:48;;;;;;;20.70;18.60;;;;;;;25.55;62.25;98783.95;106643;1263;60188;-38
2023/08/30 05:44:15;;;;;;;24.60;18.80;;;;;;;25.62;62.00;98783.79;106765;1263;59989;-37
2023/08/30 05:46:43;;;;;;;22.00;19.40;;;;;;;25.67;61.96;98786.42;106768;1262;73095;-38
2023/08/30 05:49:11;;;;;;;21.70;19.40;;;;;;;25.72;61.94;98786.91;106730;1263;67724;-39
2023/08/30 05:51:38;;;;;;;23.30;19.90;;;;;;;25.76;61.89;98783.77;106804;1263;72394;-38
2023/08/30 05:54:06;;;;;;;22.10;19.80;;;;;;;25.80;61.67;98781.08;106815;1264;59624;-38
2023/08/30 05:56:34;;;;;;;22.70;19.50;;;;;;;25.83;61.62;98780.34;106783;1263;59722;-39
2023/08/30 05:59:02;;;;;;;25.30;20.40;;;;;;;25.86;61.54;98783.06;106650;1263;73322;-39
2023/08/30 06:01:29;;;;;;;23.80;19.80;;;;;;;25.89;61.50;98788.77;106847;1263;67588;-39
2023/08/30 06:03:57;;;;;;;22.30;19.90;;;;;;;25.91;61.24;98790.22;106847;1264;72725;-39
2023/08/30 06:06:27;;;;;;;21.90;19.50;;;;;;;25.95;61.36;98790.29;106898;1263;60102;-39
2023/08/30 06:08:54;;;;;;;;;;;;;;;25.98;61.26;98792.98;106876;1262;59258;-38
2023/08/30 06:11:22;;;;;;;22.80;16.90;;;;;;;26.04;60.98;98794.03;106836;1263;73098;-39
2023/08/30 06:13:50;;;;;;;21.70;18.20;;;;;;;26.11;60.96;98792.60;106811;1263;66515;-39
2023/08/30 06:16:18;;;;;;;19.00;17.10;;;;;;;26.19;60.80;98790.36;106796;1263;71475;-39
2023/08/30 06:18:45;;;;;;;22.40;17.40;;;;;;;26.27;60.52;98791.70;106780;1263;60080;-39
2023/08/30 06:21:13;;;;;;;20.30;17.90;;;;;;;26.34;60.40;98787.67;106802;1263;59799;-39
2023/08/30 06:23:40;;;;;;;22.60;18.10;;;;;;;26.41;60.31;98787.59;106833;1263;73505;-39
2023/08/30 06:26:08;;;;;;;20.70;17.30;;;;;;;26.47;60.04;98786.41;106882;1263;67764;-39
2023/08/30 06:28:36;;;;;;;20.30;18.10;;;;;;;26.51;59.96;98786.42;106787;1264;71445;-39
2023/08/30 06:31:05;;;;;;;21.80;17.10;;;;;;;26.58;59.73;98788.87;106800;1263;60065;-39
2023/08/30 06:33:32;;;;;;;20.70;17.70;;;;;;;26.63;59.56;98788.85;106800;1268;59611;-39
2023/08/30 06:36:00;;;;;;;22.60;17.20;;;;;;;26.68;59.59;98790.70;106732;1263;73031;-39
2023/08/30 06:38:27;;;;;;;24.50;17.40;;;;;;;26.72;59.68;98793.64;106793;1268;67641;-39
2023/08/30 06:40:58;;;;;;;18.40;16.40;;;;;;;26.77;59.59;98794.57;106797;1264;72673;-39
2023/08/30 06:43:25;;;;;;;18.60;16.00;;;;;;;26.84;59.24;98796.41;106805;1266;59911;-39
2023/08/30 06:45:53;;;;;;;21.50;16.90;;;;;;;26.93;59.25;98797.98;106801;1263;60047;-39
2023/08/30 06:48:21;;;;;;;21.10;15.70;;;;;;;27.00;58.73;98796.77;106805;1268;73088;-38
2023/08/30 06:50:48;;;;;;;18.00;15.80;;;;;;;27.07;58.37;98791.85;106823;1262;67923;-39
2023/08/30 06:53:16;;;;;;;16.60;14.80;;;;;;;27.16;58.11;98788.74;106784;1263;72748;-39
2023/08/30 06:55:43;;;;;;;20.10;16.50;;;;;;;27.23;56.58;98791.06;106812;1263;59687;-39
2023/08/30 06:58:11;;;;;;;20.10;16.40;;;;;;;27.26;56.84;98788.77;106805;1263;59589;-38
2023/08/30 07:00:39;;;;;;;17.90;16.10;;;;;;;27.29;56.64;98789.30;106848;1263;71804;-39
2023/08/30 07:03:06;;;;;;;19.40;16.10;;;;;;;27.34;57.17;98792.86;106794;1263;66764;-39
2023/08/30 07:05:34;;;;;;;17.50;15.60;;;;;;;27.40;57.27;98793.05;106788;1263;72680;-39
2023/08/30 07:08:02;;;;;;;17.80;15.70;;;;;;;27.44;56.66;98790.98;106798;1263;60075;-39
2023/08/30 07:10:30;;;;;;;20.00;15.40;;;;;;;27.48;56.52;98790.91;106855;1263;59552;-39
2023/08/30 07:12:57;;;;;;;19.20;15.20;;;;;;;27.53;56.47;98790.50;106778;1263;73095;-39
2023/08/30 07:15:25;;;;;;;18.90;15.80;;;;;;;27.55;56.17;98790.05;106837;1263;67569;-39
2023/08/30 07:17:53;;;;;;;20.40;15.70;;;;;;;27.57;56.20;98791.25;106818;1262;70500;-39
2023/08/30 07:20:23;;;;;;;21.00;15.60;;;;;;;27.62;56.43;98787.86;106818;1265;60441;-39
2023/08/30 07:22:51;;;;;;;19.60;15.50;;;;;;;27.67;56.20;98789.45;106866;1263;59536;-39
2023/08/30 07:25:18;;;;;;;18.80;15.90;;;;;;;27.75;55.88;98787.88;106802;1264;71850;-39
2023/08/30 07:27:46;;;;;;;16.70;14.90;;;;;;;27.84;56.40;98786.95;106842;1263;65889;-39
2023/08/30 07:30:14;;;;;;;18.60;14.90;;;;;;;27.94;55.25;98785.18;106831;1263;71455;-39
2023/08/30 07:32:42;;;;;;;16.10;13.70;;;;;;;28.00;54.55;98783.77;106810;1267;60079;-39
2023/08/30 07:35:09;;;;;;;19.30;13.80;;;;;;;28.07;54.67;98784.14;106842;1263;59365;-39
2023/08/30 07:37:41;;;;;;;19.50;13.80;;;;;;;28.16;54.59;98780.81;106821;1269;72767;-39
2023/08/30 07:40:09;;;;;;;17.40;13.40;;;;;;;28.25;54.41;98786.31;106789;1263;66313;-39
2023/08/30 07:42:37;;;;;;;16.80;14.20;;;;;;;28.34;53.72;98784.01;106851;1263;73130;-39
2023/08/30 07:45:05;;;;;;;16.60;13.60;;;;;;;28.41;53.62;98781.13;106812;1264;60249;-39
2023/08/30 07:47:33;;;;;;;17.50;13.30;;;;;;;28.50;52.79;98780.39;106829;1263;59088;-39
2023/08/30 07:50:01;;;;;;;14.70;12.20;;;;;;;28.58;52.50;98778.17;106785;1267;73183;-39
2023/08/30 07:52:28;;;;;;;13.30;11.80;;;;;;;28.66;51.36;98776.86;106814;1263;67900;-39
2023/08/30 07:55:13;;;;;;;14.40;12.00;;;;;;;28.73;51.61;98779.02;106826;1266;72690;-39
2023/08/30 07:57:40;;;;;;;13.90;11.60;;;;;;;28.82;51.91;98781.83;106848;1263;60112;-38
2023/08/30 08:00:09;;;;;;;16.20;11.50;;;;;;;28.93;50.86;98778.02;107250;1257;59603;-39
2023/08/30 08:02:40;;;;;;;16.60;11.20;;;;;;;29.01;50.14;98773.77;107246;1256;73069;-39
2023/08/30 08:05:08;;;;;;;17.50;11.30;;;;;;;29.09;50.49;98777.05;107330;1256;68077;-39
2023/08/30 08:07:38;;;;;;;14.30;11.50;;;;;;;29.21;50.53;98776.81;107262;1260;71021;-39
2023/08/30 08:10:07;;;;;;;12.30;10.50;;;;;;;29.32;50.15;98779.58;107274;1260;60580;-39
2023/08/30 08:12:34;;;;;;;12.80;9.80;;;;;;;29.44;50.07;98776.08;107325;1256;59608;-39
2023/08/30 08:15:03;;;;;;;12.20;10.00;;;;;;;29.56;49.95;98776.98;107219;1256;73522;-39
2023/08/30 08:17:30;;;;;;;15.10;10.10;;;;;;;29.66;47.63;98774.98;107285;1260;66278;-39
2023/08/30 08:19:58;;;;;;;14.60;9.70;;;;;;;29.69;47.67;98775.50;107215;1256;72674;-39
2023/08/30 08:22:25;;;;;;;11.60;9.30;;;;;;;29.70;47.13;98772.86;107274;1256;60350;-39
2023/08/30 08:24:56;;;;;;;15.80;9.50;;;;;;;29.70;47.31;98774.55;107361;1257;60006;-39
2023/08/30 08:27:27;;;;;;;11.40;9.00;;;;;;;29.73;48.14;98771.41;107313;1255;71807;-39
2023/08/30 08:29:54;;;;;;;14.00;10.00;;;;;;;29.77;47.57;98772.48;107308;1260;66345;-39
2023/08/30 08:32:22;;;;;;;12.30;9.60;;;;;;;29.84;46.69;98774.83;107249;1257;73128;-39
2023/08/30 08:34:50;;;;;;;11.30;9.00;;;;;;;29.86;46.60;98772.10;107364;1256;59894;-39
2023/08/30 08:37:17;;;;;;;12.10;9.00;;;;;;;29.92;46.82;98768.69;107297;1260;59632;-39
2023/08/30 08:39:46;;;;;;;13.30;9.50;;;;;;;30.01;46.46;98766.41;107234;1256;72652;-39
2023/08/30 08:42:17;;;;;;;11.30;9.60;;;;;;;30.10;45.51;98765.10;107330;1256;67908;-40
2023/08/30 08:44:50;;;;;;;10.30;9.00;;;;;;;30.14;45.14;98762.66;107328;1256;72812;-38
2023/08/30 08:47:19;;;;;;;14.40;9.10;;;;;;;30.18;45.48;98758.13;107299;1257;60046;-38
2023/08/30 08:49:47;;;;;;;11.50;8.60;;;;;;;30.27;45.78;98756.83;107306;1256;60030;-38
2023/08/30 08:52:15;;;;;;;13.10;9.40;;;;;;;30.40;46.23;98756.00;107697;1253;73024;-38
2023/08/30 08:54:59;;;;;;;13.70;9.10;;;;;;;30.56;45.68;98755.16;107667;1253;67913;-38
2023/08/30 08:57:28;;;;;;;;;;;;;;;30.68;44.57;98752.24;107651;1253;72669;-38
2023/08/30 08:59:56;;;;;;;13.40;9.50;;;;;;;30.77;44.93;98753.66;107678;1256;60113;-38
2023/08/30 09:02:24;;;;;;;13.70;9.40;;;;;;;30.83;44.83;98752.21;107676;1252;59476;-38
2023/08/30 09:04:52;;;;;;;10.00;8.80;;;;;;;30.90;44.80;98747.02;107646;1253;73018;-38
2023/08/30 09:07:20;;;;;;;10.60;8.90;;;;;;;30.98;44.82;98742.26;107662;1253;67875;-38
2023/08/30 09:09:48;;;;;;;11.90;9.20;;;;;;;31.07;44.38;98743.42;107614;1256;71065;-38
2023/08/30 09:12:15;;;;;;;15.00;10.00;;;;;;;31.15;44.07;98744.02;107508;1253;59625;-38
2023/08/30 09:14:54;;;;;;;14.80;9.60;;;;;;;31.24;44.04;98741.58;107372;1253;60567;-38
2023/08/30 09:17:21;;;;;;;13.60;9.50;;;;;;;31.34;43.26;98738.08;107421;1255;73068;-38
2023/08/30 09:19:50;;;;;;;11.60;9.80;;;;;;;31.42;42.69;98745.92;107591;1253;66631;-38
2023/08/30 09:22:17;;;;;;;13.80;9.40;;;;;;;31.45;41.52;98744.50;107552;1253;73173;-38
2023/08/30 09:24:45;;;;;;;12.60;9.60;;;;;;;31.46;41.42;98742.98;107502;1253;60117;-38
2023/08/30 09:27:13;;;;;;;14.60;9.80;;;;;;;31.46;41.25;98747.77;107573;1253;60432;-38
2023/08/30 09:29:43;;;;;;;15.10;9.30;;;;;;;31.45;41.32;98745.67;107544;1256;73794;-38
2023/08/30 09:32:13;;;;;;;13.30;9.10;;;;;;;31.45;41.44;98743.53;107563;1253;67871;-38
2023/08/30 09:34:47;;;;;;;10.80;8.70;;;;;;;31.44;41.36;98740.11;107374;1253;72800;-38
2023/08/30 09:37:22;;;;;;;16.00;9.10;;;;;;;31.45;41.36;98742.00;107571;1253;60430;-38
2023/08/30 09:39:50;;;;;;;13.10;8.80;;;;;;;31.46;41.21;98738.08;107564;1254;60114;-39
2023/08/30 09:42:18;;;;;;;10.10;8.60;;;;;;;31.50;41.41;98731.17;107600;1258;72526;-38
2023/08/30 09:44:45;;;;;;;11.50;8.80;;;;;;;31.56;40.93;98729.84;107418;1258;67446;-39
2023/08/30 09:47:15;;;;;;;10.60;8.70;;;;;;;31.64;41.32;98727.26;107589;1253;70639;-38
2023/08/30 09:49:45;;;;;;;12.10;8.60;;;;;;;31.84;40.90;98722.34;107587;1253;60412;-39
2023/08/30 09:52:14;;;;;;;12.40;8.90;;;;;;;32.09;40.11;98717.38;107613;1253;60303;-38
2023/08/30 09:54:43;;;;;;;;;;;;;;;32.33;39.73;98707.75;107432;1253;72997;-38
2023/08/30 09:57:11;;;;;;;16.30;8.70;;;;;;;32.62;39.08;98708.05;107376;1253;66610;-39
2023/08/30 09:59:39;;;;;;;14.40;8.40;;;;;;;32.88;37.93;98703.60;107544;1253;72731;-38
2023/08/30 10:02:08;;;;;;;14.10;8.40;;;;;;;33.04;37.88;98706.21;107401;1253;60197;-38
2023/08/30 10:04:38;;;;;;;11.70;8.70;;;;;;;33.19;38.07;98703.20;107558;1258;60488;-38
2023/08/30 10:07:06;;;;;;;10.00;8.40;;;;;;;33.39;37.30;98700.77;107570;1253;72293;-38
2023/08/30 10:09:34;;;;;;;10.30;8.20;;;;;;;33.53;37.11;98693.59;107579;1253;66616;-39
2023/08/30 10:12:02;;;;;;;9.70;7.70;;;;;;;33.75;36.97;98691.61;107239;1253;73011;-39
2023/08/30 10:14:30;;;;;;;13.10;8.20;;;;;;;34.01;36.83;98696.23;107619;1256;60447;-39
2023/08/30 10:17:03;;;;;;;9.20;8.10;;;;;;;34.25;35.33;98693.36;107636;1253;60469;-38
2023/08/30 10:19:31;;;;;;;14.70;8.20;;;;;;;34.33;35.03;98689.94;107679;1252;73988;-39
2023/08/30 10:22:04;;;;;;;11.00;7.90;;;;;;;34.33;35.00;98687.56;107640;1253;67618;-38
2023/08/30 10:24:35;;;;;;;15.30;7.30;;;;;;;34.39;35.32;98687.83;107622;1257;72704;-39
2023/08/30 10:27:14;;;;;;;14.50;8.00;;;;;;;34.58;34.40;98675.86;107628;1253;60426;-39
2023/08/30 10:29:42;;;;;;;10.20;8.10;;;;;;;34.77;34.39;98679.41;107549;1253;60462;-38
2023/08/30 10:32:10;;;;;;;9.80;7.80;;;;;;;34.95;33.82;98681.26;107558;1252;74157;-38
2023/08/30 10:34:37;;;;;;;8.00;7.00;;;;;;;35.02;33.43;98672.88;107633;1253;67609;-39
2023/08/30 10:37:10;;;;;;;10.90;7.40;;;;;;;34.92;34.13;98667.89;107603;1257;72752;-39
2023/08/30 10:39:39;;;;;;;9.90;7.20;;;;;;;34.88;33.85;98660.96;107614;1254;60315;-38
2023/08/30 10:42:11;;;;;;;10.90;7.00;;;;;;;34.92;33.35;98661.66;107688;1251;60470;-38
2023/08/30 10:44:51;;;;;;;9.50;6.90;;;;;;;35.04;33.35;98652.39;107692;1252;73885;-38
2023/08/30 10:47:39;;;;;;;10.30;7.10;;;;;;;35.21;33.64;98649.23;107638;1252;67587;-38
2023/08/30 10:50:10;;;;;;;9.10;6.90;;;;;;;35.30;33.42;98647.69;107641;1253;72762;-38
2023/08/30 10:52:38;;;;;;;9.70;7.10;;;;;;;35.29;33.82;98642.20;107707;1253;60378;-38
2023/08/30 10:55:09;;;;;;;10.40;7.60;;;;;;;35.28;33.64;98637.48;107620;1253;60329;-38
2023/08/30 10:57:37;;;;;;;14.80;7.10;;;;;;;35.35;33.03;98631.85;107660;1254;73032;-38
2023/08/30 11:00:09;;;;;;;12.20;7.10;;;;;;;35.47;32.89;98630.14;107631;1256;66218;-38
2023/08/30 11:02:37;;;;;;;13.00;7.50;;;;;;;35.55;32.22;98631.85;107651;1255;72716;-38
2023/08/30 11:05:06;;;;;;;10.40;7.60;;;;;;;35.44;32.67;98625.45;107614;1257;60295;-38
2023/08/30 11:07:34;;;;;;;10.00;6.90;;;;;;;35.27;33.41;98622.86;107663;1253;60415;-38
2023/08/30 11:10:04;;;;;;;7.90;6.50;;;;;;;35.10;33.08;98616.62;107647;1253;73867;-38
2023/08/30 11:12:32;;;;;;;11.70;7.30;;;;;;;34.85;33.29;98611.24;107638;1254;67939;-38
2023/08/30 11:15:00;;;;;;;9.20;6.70;;;;;;;34.67;33.67;98601.31;107618;1254;71576;-38
2023/08/30 11:17:28;;;;;;;9.70;6.70;;;;;;;34.54;33.98;98597.44;107563;1256;60340;-38
2023/08/30 11:20:08;;;;;;;10.80;7.00;;;;;;;34.48;34.06;98597.27;107680;1253;60015;-38
2023/08/30 11:22:39;;;;;;;12.40;6.90;;;;;;;34.57;34.14;98592.15;107652;1256;73912;-38